createdAt,value
2018-05-31T00:03:34.474Z,18.60
2018-05-31T00:09:38.843Z,18.70
2018-05-31T00:15:43.253Z,18.60
2018-05-31T00:21:48.414Z,18.40
2018-05-31T00:27:53.472Z,18.40
2018-05-31T00:33:58.679Z,18.20
2018-05-31T00:40:03.181Z,18.20
2018-05-31T00:46:07.576Z,18.00
2018-05-31T00:52:12.102Z,17.90
2018-05-31T00:58:16.484Z,17.90
2018-05-31T01:04:20.856Z,17.80
2018-05-31T01:10:25.354Z,17.70
2018-05-31T01:16:29.766Z,17.70
2018-05-31T01:22:34.355Z,17.70
2018-05-31T01:28:38.855Z,17.60
2018-05-31T01:34:44.042Z,17.30
2018-05-31T01:40:48.435Z,17.30
2018-05-31T01:46:52.968Z,17.30
2018-05-31T01:52:57.329Z,17.30
2018-05-31T01:59:01.704Z,17.30
2018-05-31T02:05:06.189Z,17.30
2018-05-31T02:11:10.752Z,17.30
2018-05-31T02:17:15.201Z,17.30
2018-05-31T02:23:20.553Z,17.10
2018-05-31T02:29:25.480Z,16.90
2018-05-31T02:35:30.625Z,16.90
2018-05-31T02:41:35.036Z,16.90
2018-05-31T02:47:39.787Z,16.90
2018-05-31T02:53:44.784Z,16.90
2018-05-31T02:59:50.820Z,17.00
2018-05-31T03:05:55.410Z,16.90
2018-05-31T03:11:59.851Z,17.00
2018-05-31T03:18:05.075Z,17.00
2018-05-31T03:24:09.562Z,17.00
2018-05-31T03:30:14.116Z,16.90
2018-05-31T03:36:18.507Z,16.90
2018-05-31T03:42:23.021Z,16.80
2018-05-31T03:48:27.588Z,16.90
2018-05-31T03:54:32.191Z,16.80
2018-05-31T04:00:36.573Z,16.90
2018-05-31T04:06:40.993Z,17.00
2018-05-31T04:12:46.156Z,17.40
2018-05-31T04:18:50.539Z,17.30
2018-05-31T04:24:55.579Z,17.50
2018-05-31T04:31:00.075Z,17.70
2018-05-31T04:37:04.526Z,17.90
2018-05-31T04:43:09.654Z,17.90
2018-05-31T04:49:14.028Z,17.90
2018-05-31T04:55:18.403Z,17.90
2018-05-31T05:01:23.993Z,18.20
2018-05-31T05:07:28.701Z,18.20
2018-05-31T05:13:33.091Z,18.40
2018-05-31T05:19:37.953Z,18.70
2018-05-31T05:25:42.316Z,18.80
2018-05-31T05:31:46.740Z,19.10
2018-05-31T05:37:52.541Z,19.30
2018-05-31T05:43:56.906Z,19.50
2018-05-31T05:50:01.278Z,19.70
2018-05-31T05:56:05.689Z,20.00
2018-05-31T06:02:10.963Z,20.50
2018-05-31T06:08:16.116Z,20.70
2018-05-31T06:14:20.764Z,20.70
2018-05-31T06:20:25.940Z,21.30
2018-05-31T06:26:30.623Z,21.20
2018-05-31T06:32:34.785Z,21.50
2018-05-31T06:38:39.160Z,21.80
2018-05-31T06:44:43.530Z,22.00
2018-05-31T06:50:47.907Z,22.40
2018-05-31T06:56:52.996Z,22.80
2018-05-31T07:02:57.380Z,23.00
2018-05-31T07:09:01.709Z,23.30
2018-05-31T07:15:06.125Z,23.60
2018-05-31T07:21:10.563Z,23.80
2018-05-31T07:27:14.992Z,24.10
2018-05-31T07:33:20.527Z,24.40
2018-05-31T07:39:26.594Z,24.90
2018-05-31T07:45:30.941Z,24.90
2018-05-31T07:51:35.325Z,25.20
2018-05-31T07:57:39.678Z,25.30
2018-05-31T08:03:44.479Z,25.80
2018-05-31T08:09:48.828Z,26.10
2018-05-31T08:15:53.341Z,26.40
2018-05-31T08:21:57.734Z,26.80
2018-05-31T08:28:02.048Z,27.10
2018-05-31T08:34:06.469Z,27.50
2018-05-31T08:40:10.839Z,27.60
2018-05-31T08:46:15.190Z,28.00
2018-05-31T08:52:19.574Z,28.40
2018-05-31T08:58:24.101Z,28.30
2018-05-31T09:04:29.221Z,28.90
2018-05-31T09:10:33.693Z,28.90
2018-05-31T09:16:38.054Z,29.10
2018-05-31T09:22:43.136Z,30.00
2018-05-31T09:28:47.520Z,30.00
2018-05-31T09:34:53.139Z,30.30
2018-05-31T09:40:57.678Z,30.30
2018-05-31T09:47:02.037Z,30.60
2018-05-31T09:53:06.393Z,30.70
2018-05-31T09:59:10.733Z,31.10
2018-05-31T10:05:15.881Z,31.50
2018-05-31T10:11:20.260Z,31.50
2018-05-31T10:17:24.769Z,31.50
2018-05-31T10:23:29.921Z,31.60
2018-05-31T10:29:34.259Z,31.60
2018-05-31T10:35:38.828Z,32.30
2018-05-31T10:41:43.220Z,32.80
2018-05-31T10:47:47.569Z,33.10
2018-05-31T10:53:52.865Z,33.50
2018-05-31T10:59:57.311Z,33.50
2018-05-31T11:06:01.654Z,33.60
2018-05-31T11:12:05.992Z,33.30
2018-05-31T11:18:11.119Z,33.70
2018-05-31T11:24:15.473Z,33.70
2018-05-31T11:30:20.535Z,34.00
2018-05-31T11:36:24.953Z,33.30
2018-05-31T11:42:29.303Z,33.60
2018-05-31T11:48:34.385Z,34.70
2018-05-31T11:54:38.764Z,34.60
2018-05-31T12:00:43.083Z,34.50
2018-05-31T12:06:47.456Z,35.20
2018-05-31T12:12:52.830Z,36.00
2018-05-31T12:18:57.337Z,35.90
2018-05-31T12:25:01.686Z,35.40
2018-05-31T12:31:06.032Z,35.50
2018-05-31T12:37:10.377Z,35.00
2018-05-31T12:43:14.728Z,35.90
2018-05-31T12:49:19.124Z,36.70
2018-05-31T12:55:23.598Z,36.50
2018-05-31T13:01:27.961Z,36.20
2018-05-31T13:07:32.271Z,37.00
2018-05-31T13:13:37.506Z,37.50
2018-05-31T13:19:41.858Z,38.00
2018-05-31T13:25:46.997Z,36.90
2018-05-31T13:31:51.783Z,36.90
2018-05-31T13:37:56.130Z,36.50
2018-05-31T13:44:00.491Z,35.60
2018-05-31T13:50:05.629Z,37.10
2018-05-31T13:56:09.969Z,37.10
2018-05-31T14:02:14.323Z,37.70
2018-05-31T14:08:19.441Z,38.50
2018-05-31T14:14:23.810Z,38.50
2018-05-31T14:20:28.172Z,38.90
2018-05-31T14:26:33.294Z,38.10
2018-05-31T14:32:37.657Z,38.10
2018-05-31T14:38:42.026Z,37.10
2018-05-31T14:44:46.375Z,35.10
2018-05-31T14:50:51.496Z,32.60
2018-05-31T14:56:55.864Z,32.60
2018-05-31T15:03:00.221Z,32.50
2018-05-31T15:09:07.999Z,31.80
2018-05-31T15:15:12.341Z,31.70
2018-05-31T15:21:16.838Z,31.20
2018-05-31T15:27:21.253Z,31.20
2018-05-31T15:33:25.689Z,31.30
2018-05-31T15:39:30.806Z,31.40
2018-05-31T15:45:35.161Z,31.40
2018-05-31T15:51:40.291Z,31.50
2018-05-31T15:57:44.651Z,31.50
2018-05-31T16:03:48.961Z,31.20
2018-05-31T16:09:53.395Z,30.70
2018-05-31T16:15:57.761Z,30.20
2018-05-31T16:22:02.863Z,29.70
2018-05-31T16:28:07.224Z,29.70
2018-05-31T16:34:11.567Z,29.40
2018-05-31T16:40:15.912Z,29.30
2018-05-31T16:46:20.254Z,29.30
2018-05-31T16:52:24.625Z,29.20
2018-05-31T16:58:28.955Z,28.90
2018-05-31T17:04:33.314Z,28.50
2018-05-31T17:10:37.657Z,28.20
2018-05-31T17:16:42.026Z,27.90
2018-05-31T17:22:47.119Z,27.40
2018-05-31T17:28:51.472Z,27.30
2018-05-31T17:34:56.577Z,27.00
2018-05-31T17:41:00.923Z,27.00
2018-05-31T17:47:05.284Z,27.00
2018-05-31T17:53:10.442Z,26.80
2018-05-31T17:59:14.771Z,26.80
2018-05-31T18:05:19.154Z,26.60
2018-05-31T18:11:24.305Z,25.90
2018-05-31T18:17:28.645Z,25.90
2018-05-31T18:23:33.006Z,25.60
2018-05-31T18:29:38.107Z,25.30
2018-05-31T18:35:42.453Z,25.20
2018-05-31T18:41:47.567Z,24.70
2018-05-31T18:47:52.874Z,24.50
2018-05-31T18:53:57.284Z,24.40
2018-05-31T19:00:01.658Z,24.10
2018-05-31T19:06:06.879Z,23.60
2018-05-31T19:12:11.236Z,23.60
2018-05-31T19:18:21.442Z,23.40
2018-05-31T19:24:32.170Z,23.10
2018-05-31T19:30:41.984Z,23.10
2018-05-31T19:36:53.359Z,22.80
2018-05-31T19:43:03.463Z,22.80
2018-05-31T19:49:08.631Z,22.60
2018-05-31T19:55:12.973Z,22.60
2018-05-31T20:01:23.177Z,22.50
2018-05-31T20:07:27.580Z,22.50
2018-05-31T20:13:31.929Z,22.50
2018-05-31T20:19:36.289Z,22.40
2018-05-31T20:25:40.656Z,22.30
2018-05-31T20:31:45.366Z,22.00
2018-05-31T20:37:49.731Z,21.90
2018-05-31T20:43:54.277Z,21.90
2018-05-31T20:49:59.408Z,21.60
2018-05-31T20:56:03.781Z,21.60
2018-05-31T21:02:08.128Z,21.70
2018-05-31T21:08:12.489Z,21.70
2018-05-31T21:14:17.613Z,21.50
2018-05-31T21:20:22.052Z,21.50
2018-05-31T21:26:26.408Z,21.50
2018-05-31T21:32:30.788Z,21.50
2018-05-31T21:38:35.150Z,21.50
2018-05-31T21:44:39.526Z,21.50
2018-05-31T21:50:43.875Z,21.40
2018-05-31T21:56:48.292Z,21.20
2018-05-31T22:02:53.560Z,21.10
2018-05-31T22:08:57.912Z,20.90
2018-05-31T22:15:02.269Z,20.90
2018-05-31T22:21:06.631Z,20.70
2018-05-31T22:27:11.749Z,20.70
2018-05-31T22:33:16.103Z,20.70
2018-05-31T22:39:21.240Z,20.80
2018-05-31T22:45:25.589Z,20.70
2018-05-31T22:51:29.985Z,20.70
2018-05-31T22:57:34.333Z,20.50
2018-05-31T23:03:38.658Z,20.40
2018-05-31T23:09:43.046Z,20.30
2018-05-31T23:15:48.182Z,20.20
2018-05-31T23:34:57.591Z,20.20
2018-05-31T23:41:02.720Z,19.50
2018-05-31T23:47:07.076Z,19.50
2018-05-31T23:53:11.426Z,19.50
2018-05-31T23:59:16.609Z,19.50
